sensor_id;sensor_type;location;lat;lon;timestamp;temperature;humidity
68109;SHT30;54893;49.864;19.084;2024-03-02T00:04:54;7.17;99.99
68109;SHT30;54893;49.864;19.084;2024-03-02T00:09:54;7.22;99.99
68109;SHT30;54893;49.864;19.084;2024-03-02T00:14:55;7.23;99.99
68109;SHT30;54893;49.864;19.084;2024-03-02T00:19:55;7.16;99.99
68109;SHT30;54893;49.864;19.084;2024-03-02T00:24:56;7.15;99.99
68109;SHT30;54893;49.864;19.084;2024-03-02T00:29:56;7.13;99.99
68109;SHT30;54893;49.864;19.084;2024-03-02T00:34:57;7.07;99.99
68109;SHT30;54893;49.864;19.084;2024-03-02T00:39:58;7.10;99.99
68109;SHT30;54893;49.864;19.084;2024-03-02T00:44:58;7.07;99.99
68109;SHT30;54893;49.864;19.084;2024-03-02T00:49:59;7.22;99.99
68109;SHT30;54893;49.864;19.084;2024-03-02T00:54:59;7.20;99.99
68109;SHT30;54893;49.864;19.084;2024-03-02T01:00:00;7.07;99.99
68109;SHT30;54893;49.864;19.084;2024-03-02T01:05:00;7.12;99.99
68109;SHT30;54893;49.864;19.084;2024-03-02T01:10:01;7.06;99.99
68109;SHT30;54893;49.864;19.084;2024-03-02T01:15:01;7.00;99.99
68109;SHT30;54893;49.864;19.084;2024-03-02T01:20:04;6.99;99.99
68109;SHT30;54893;49.864;19.084;2024-03-02T01:25:08;6.95;99.99
68109;SHT30;54893;49.864;19.084;2024-03-02T01:30:09;6.85;99.99
68109;SHT30;54893;49.864;19.084;2024-03-02T01:35:09;6.82;99.99
68109;SHT30;54893;49.864;19.084;2024-03-02T01:40:10;6.75;99.99
68109;SHT30;54893;49.864;19.084;2024-03-02T01:45:11;6.71;99.99
68109;SHT30;54893;49.864;19.084;2024-03-02T01:50:12;6.65;99.99
68109;SHT30;54893;49.864;19.084;2024-03-02T01:55:13;6.59;99.99
68109;SHT30;54893;49.864;19.084;2024-03-02T02:00:14;6.52;99.99
68109;SHT30;54893;49.864;19.084;2024-03-02T02:05:15;6.52;99.99
68109;SHT30;54893;49.864;19.084;2024-03-02T02:10:16;6.44;99.99
68109;SHT30;54893;49.864;19.084;2024-03-02T02:15:26;6.31;99.99
68109;SHT30;54893;49.864;19.084;2024-03-02T02:20:27;6.14;99.99
68109;SHT30;54893;49.864;19.084;2024-03-02T02:25:28;6.11;99.99
68109;SHT30;54893;49.864;19.084;2024-03-02T02:30:31;6.07;99.99
68109;SHT30;54893;49.864;19.084;2024-03-02T02:35:31;5.95;99.99
68109;SHT30;54893;49.864;19.084;2024-03-02T02:40:32;5.75;99.99
68109;SHT30;54893;49.864;19.084;2024-03-02T02:45:33;5.73;99.99
68109;SHT30;54893;49.864;19.084;2024-03-02T02:50:33;5.77;99.99
68109;SHT30;54893;49.864;19.084;2024-03-02T02:55:33;5.67;99.99
68109;SHT30;54893;49.864;19.084;2024-03-02T03:00:34;5.61;99.99
68109;SHT30;54893;49.864;19.084;2024-03-02T03:05:34;5.51;99.99
68109;SHT30;54893;49.864;19.084;2024-03-02T03:10:34;5.42;99.99
68109;SHT30;54893;49.864;19.084;2024-03-02T03:15:35;5.46;99.99
68109;SHT30;54893;49.864;19.084;2024-03-02T03:20:39;5.46;99.99
68109;SHT30;54893;49.864;19.084;2024-03-02T03:25:39;5.50;99.99
68109;SHT30;54893;49.864;19.084;2024-03-02T03:30:39;5.54;99.99
68109;SHT30;54893;49.864;19.084;2024-03-02T03:35:40;5.60;99.99
68109;SHT30;54893;49.864;19.084;2024-03-02T03:40:40;5.70;99.99
68109;SHT30;54893;49.864;19.084;2024-03-02T03:45:41;5.69;99.99
68109;SHT30;54893;49.864;19.084;2024-03-02T03:50:41;5.73;99.99
68109;SHT30;54893;49.864;19.084;2024-03-02T03:55:42;5.74;99.99
68109;SHT30;54893;49.864;19.084;2024-03-02T04:00:42;5.67;99.99
68109;SHT30;54893;49.864;19.084;2024-03-02T04:05:43;5.71;99.99
68109;SHT30;54893;49.864;19.084;2024-03-02T04:10:43;5.70;99.99
68109;SHT30;54893;49.864;19.084;2024-03-02T04:15:43;5.74;99.99
68109;SHT30;54893;49.864;19.084;2024-03-02T04:20:44;5.66;99.99
68109;SHT30;54893;49.864;19.084;2024-03-02T04:25:44;5.59;99.99
68109;SHT30;54893;49.864;19.084;2024-03-02T04:30:44;5.40;99.99
68109;SHT30;54893;49.864;19.084;2024-03-02T04:35:45;5.22;99.99
68109;SHT30;54893;49.864;19.084;2024-03-02T04:40:46;5.02;99.99
68109;SHT30;54893;49.864;19.084;2024-03-02T04:45:47;5.02;99.99
68109;SHT30;54893;49.864;19.084;2024-03-02T04:50:47;4.99;99.99
68109;SHT30;54893;49.864;19.084;2024-03-02T04:55:47;4.85;99.99
68109;SHT30;54893;49.864;19.084;2024-03-02T05:01:08;4.79;99.99
68109;SHT30;54893;49.864;19.084;2024-03-02T05:06:08;4.76;99.99
68109;SHT30;54893;49.864;19.084;2024-03-02T05:11:09;4.86;99.99
68109;SHT30;54893;49.864;19.084;2024-03-02T05:16:28;4.86;99.99
68109;SHT30;54893;49.864;19.084;2024-03-02T05:21:28;4.88;99.99
68109;SHT30;54893;49.864;19.084;2024-03-02T05:26:29;4.82;99.99
68109;SHT30;54893;49.864;19.084;2024-03-02T05:31:29;4.88;99.99
68109;SHT30;54893;49.864;19.084;2024-03-02T05:36:29;4.91;99.99
68109;SHT30;54893;49.864;19.084;2024-03-02T05:41:30;4.86;99.99
68109;SHT30;54893;49.864;19.084;2024-03-02T05:46:30;4.99;99.99
68109;SHT30;54893;49.864;19.084;2024-03-02T05:51:31;5.13;99.99
68109;SHT30;54893;49.864;19.084;2024-03-02T05:56:31;5.30;99.99
68109;SHT30;54893;49.864;19.084;2024-03-02T06:01:32;5.43;99.99
68109;SHT30;54893;49.864;19.084;2024-03-02T06:06:33;5.57;99.99
68109;SHT30;54893;49.864;19.084;2024-03-02T06:11:34;5.61;99.99
68109;SHT30;54893;49.864;19.084;2024-03-02T06:16:38;5.67;99.99
68109;SHT30;54893;49.864;19.084;2024-03-02T06:21:38;5.77;99.99
68109;SHT30;54893;49.864;19.084;2024-03-02T06:26:39;5.91;99.99
68109;SHT30;54893;49.864;19.084;2024-03-02T06:31:39;6.13;99.99
68109;SHT30;54893;49.864;19.084;2024-03-02T06:36:40;6.29;99.99
68109;SHT30;54893;49.864;19.084;2024-03-02T06:41:42;6.49;99.99
68109;SHT30;54893;49.864;19.084;2024-03-02T06:46:43;6.68;99.99
68109;SHT30;54893;49.864;19.084;2024-03-02T06:51:44;6.82;99.99
68109;SHT30;54893;49.864;19.084;2024-03-02T06:56:44;7.13;99.99
68109;SHT30;54893;49.864;19.084;2024-03-02T07:01:45;7.33;99.99
68109;SHT30;54893;49.864;19.084;2024-03-02T07:06:46;7.56;99.99
68109;SHT30;54893;49.864;19.084;2024-03-02T07:11:46;7.81;99.42
68109;SHT30;54893;49.864;19.084;2024-03-02T07:16:47;8.08;98.92
68109;SHT30;54893;49.864;19.084;2024-03-02T07:21:47;8.44;99.51
68109;SHT30;54893;49.864;19.084;2024-03-02T07:26:47;8.60;99.86
68109;SHT30;54893;49.864;19.084;2024-03-02T07:31:48;8.80;99.99
68109;SHT30;54893;49.864;19.084;2024-03-02T07:36:48;8.96;99.79
68109;SHT30;54893;49.864;19.084;2024-03-02T07:41:49;9.14;99.99
68109;SHT30;54893;49.864;19.084;2024-03-02T07:46:49;9.34;99.59
68109;SHT30;54893;49.864;19.084;2024-03-02T07:51:50;9.71;99.99
68109;SHT30;54893;49.864;19.084;2024-03-02T07:56:50;9.82;98.07
68109;SHT30;54893;49.864;19.084;2024-03-02T08:01:51;10.04;95.86
68109;SHT30;54893;49.864;19.084;2024-03-02T08:06:51;10.32;96.49
68109;SHT30;54893;49.864;19.084;2024-03-02T08:11:52;10.50;95.29
68109;SHT30;54893;49.864;19.084;2024-03-02T08:16:52;10.70;95.09
68109;SHT30;54893;49.864;19.084;2024-03-02T08:21:53;11.06;95.71
68109;SHT30;54893;49.864;19.084;2024-03-02T08:26:53;11.19;93.84
68109;SHT30;54893;49.864;19.084;2024-03-02T08:31:54;11.28;94.41
68109;SHT30;54893;49.864;19.084;2024-03-02T08:36:54;11.23;95.03
68109;SHT30;54893;49.864;19.084;2024-03-02T08:41:55;10.97;96.03
68109;SHT30;54893;49.864;19.084;2024-03-02T08:46:55;11.20;95.93
68109;SHT30;54893;49.864;19.084;2024-03-02T08:51:55;11.14;94.64
68109;SHT30;54893;49.864;19.084;2024-03-02T08:56:56;10.97;94.49
68109;SHT30;54893;49.864;19.084;2024-03-02T09:01:57;10.52;94.95
68109;SHT30;54893;49.864;19.084;2024-03-02T09:06:57;10.72;95.86
68109;SHT30;54893;49.864;19.084;2024-03-02T09:11:58;10.93;96.25
68109;SHT30;54893;49.864;19.084;2024-03-02T09:16:58;10.69;95.86
68109;SHT30;54893;49.864;19.084;2024-03-02T09:21:59;10.53;95.85
68109;SHT30;54893;49.864;19.084;2024-03-02T09:26:59;10.28;96.41
68109;SHT30;54893;49.864;19.084;2024-03-02T09:32:00;10.21;96.92
68109;SHT30;54893;49.864;19.084;2024-03-02T09:37:00;10.12;96.52
68109;SHT30;54893;49.864;19.084;2024-03-02T09:42:01;9.98;96.79
68109;SHT30;54893;49.864;19.084;2024-03-02T09:47:01;10.05;97.75
68109;SHT30;54893;49.864;19.084;2024-03-02T09:52:03;10.04;96.75
68109;SHT30;54893;49.864;19.084;2024-03-02T09:57:03;10.25;96.62
68109;SHT30;54893;49.864;19.084;2024-03-02T10:02:04;10.32;96.87
68109;SHT30;54893;49.864;19.084;2024-03-02T10:07:14;10.14;96.89
68109;SHT30;54893;49.864;19.084;2024-03-02T10:12:18;10.38;96.75
68109;SHT30;54893;49.864;19.084;2024-03-02T10:17:30;10.50;97.41
68109;SHT30;54893;49.864;19.084;2024-03-02T10:22:31;10.62;96.97
68109;SHT30;54893;49.864;19.084;2024-03-02T10:27:34;10.58;97.02
68109;SHT30;54893;49.864;19.084;2024-03-02T10:32:34;10.70;96.57
68109;SHT30;54893;49.864;19.084;2024-03-02T10:37:35;10.86;97.28
68109;SHT30;54893;49.864;19.084;2024-03-02T10:42:37;11.16;97.24
68109;SHT30;54893;49.864;19.084;2024-03-02T10:47:38;11.07;97.00
68109;SHT30;54893;49.864;19.084;2024-03-02T10:52:39;11.03;96.68
68109;SHT30;54893;49.864;19.084;2024-03-02T10:57:51;10.75;97.57
68109;SHT30;54893;49.864;19.084;2024-03-02T11:02:56;10.76;98.17
68109;SHT30;54893;49.864;19.084;2024-03-02T11:08:00;10.52;98.77
68109;SHT30;54893;49.864;19.084;2024-03-02T11:13:05;10.63;98.64
68109;SHT30;54893;49.864;19.084;2024-03-02T11:18:06;10.65;98.75
68109;SHT30;54893;49.864;19.084;2024-03-02T11:23:09;10.72;98.85
68109;SHT30;54893;49.864;19.084;2024-03-02T11:28:09;10.66;98.31
68109;SHT30;54893;49.864;19.084;2024-03-02T11:33:10;10.73;98.92
68109;SHT30;54893;49.864;19.084;2024-03-02T11:38:10;10.83;98.44
68109;SHT30;54893;49.864;19.084;2024-03-02T11:43:11;10.86;99.11
68109;SHT30;54893;49.864;19.084;2024-03-02T11:48:14;10.92;99.12
68109;SHT30;54893;49.864;19.084;2024-03-02T11:53:15;11.04;99.71
68109;SHT30;54893;49.864;19.084;2024-03-02T11:58:16;11.14;98.84
68109;SHT30;54893;49.864;19.084;2024-03-02T12:03:25;11.20;98.36
68109;SHT30;54893;49.864;19.084;2024-03-02T12:08:26;11.17;98.41
68109;SHT30;54893;49.864;19.084;2024-03-02T12:13:26;11.14;98.31
68109;SHT30;54893;49.864;19.084;2024-03-02T12:18:27;11.20;98.29
68109;SHT30;54893;49.864;19.084;2024-03-02T12:23:31;11.06;98.44
68109;SHT30;54893;49.864;19.084;2024-03-02T12:28:34;11.00;98.29
68109;SHT30;54893;49.864;19.084;2024-03-02T12:33:35;10.88;98.42
68109;SHT30;54893;49.864;19.084;2024-03-02T12:38:35;10.79;99.27
68109;SHT30;54893;49.864;19.084;2024-03-02T12:43:38;10.72;99.42
68109;SHT30;54893;49.864;19.084;2024-03-02T12:48:39;10.80;98.79
68109;SHT30;54893;49.864;19.084;2024-03-02T12:53:42;10.86;98.53
68109;SHT30;54893;49.864;19.084;2024-03-02T12:58:43;10.88;99.44
68109;SHT30;54893;49.864;19.084;2024-03-02T13:03:43;10.92;98.73
68109;SHT30;54893;49.864;19.084;2024-03-02T13:08:45;10.95;98.64
68109;SHT30;54893;49.864;19.084;2024-03-02T13:13:45;11.02;99.20
68109;SHT30;54893;49.864;19.084;2024-03-02T13:18:46;11.07;98.65
68109;SHT30;54893;49.864;19.084;2024-03-02T13:23:46;11.07;98.76
68109;SHT30;54893;49.864;19.084;2024-03-02T13:28:47;11.00;99.32
68109;SHT30;54893;49.864;19.084;2024-03-02T13:33:47;11.00;99.10
68109;SHT30;54893;49.864;19.084;2024-03-02T13:38:48;11.07;99.05
68109;SHT30;54893;49.864;19.084;2024-03-02T13:43:48;11.07;99.47
68109;SHT30;54893;49.864;19.084;2024-03-02T13:48:49;11.02;99.19
68109;SHT30;54893;49.864;19.084;2024-03-02T13:53:49;11.03;99.09
68109;SHT30;54893;49.864;19.084;2024-03-02T13:58:49;10.92;99.31
68109;SHT30;54893;49.864;19.084;2024-03-02T14:03:50;10.99;99.02
68109;SHT30;54893;49.864;19.084;2024-03-02T14:08:51;11.02;98.92
68109;SHT30;54893;49.864;19.084;2024-03-02T14:13:51;11.03;98.80
68109;SHT30;54893;49.864;19.084;2024-03-02T14:18:54;11.13;98.78
68109;SHT30;54893;49.864;19.084;2024-03-02T14:23:55;11.28;98.81
68109;SHT30;54893;49.864;19.084;2024-03-02T14:28:55;11.37;98.77
68109;SHT30;54893;49.864;19.084;2024-03-02T14:33:56;11.50;99.31
68109;SHT30;54893;49.864;19.084;2024-03-02T14:38:56;11.38;99.53
68109;SHT30;54893;49.864;19.084;2024-03-02T14:43:57;11.26;99.74
68109;SHT30;54893;49.864;19.084;2024-03-02T14:48:59;11.12;99.90
68109;SHT30;54893;49.864;19.084;2024-03-02T14:53:59;11.02;99.82
68109;SHT30;54893;49.864;19.084;2024-03-02T14:59:00;10.89;99.99
68109;SHT30;54893;49.864;19.084;2024-03-02T15:04:00;10.90;99.99
68109;SHT30;54893;49.864;19.084;2024-03-02T15:09:01;10.89;99.99
68109;SHT30;54893;49.864;19.084;2024-03-02T15:14:02;10.96;99.99
68109;SHT30;54893;49.864;19.084;2024-03-02T15:19:02;10.96;99.99
68109;SHT30;54893;49.864;19.084;2024-03-02T15:24:03;10.92;99.99
68109;SHT30;54893;49.864;19.084;2024-03-02T15:29:04;10.84;99.99
68109;SHT30;54893;49.864;19.084;2024-03-02T15:34:04;10.80;99.99
68109;SHT30;54893;49.864;19.084;2024-03-02T15:39:04;10.75;99.99
68109;SHT30;54893;49.864;19.084;2024-03-02T15:44:08;10.69;99.99
68109;SHT30;54893;49.864;19.084;2024-03-02T15:49:09;10.62;99.99
68109;SHT30;54893;49.864;19.084;2024-03-02T15:54:12;10.58;99.99
68109;SHT30;54893;49.864;19.084;2024-03-02T15:59:13;10.46;99.99
68109;SHT30;54893;49.864;19.084;2024-03-02T16:04:13;10.36;99.99
68109;SHT30;54893;49.864;19.084;2024-03-02T16:09:14;10.21;99.99
68109;SHT30;54893;49.864;19.084;2024-03-02T16:14:14;10.14;99.99
68109;SHT30;54893;49.864;19.084;2024-03-02T16:19:15;10.09;99.99
68109;SHT30;54893;49.864;19.084;2024-03-02T16:24:15;10.02;99.99
68109;SHT30;54893;49.864;19.084;2024-03-02T16:29:15;9.95;99.99
68109;SHT30;54893;49.864;19.084;2024-03-02T16:34:16;9.90;99.99
68109;SHT30;54893;49.864;19.084;2024-03-02T16:39:16;9.84;99.99
68109;SHT30;54893;49.864;19.084;2024-03-02T16:44:17;9.78;99.99
68109;SHT30;54893;49.864;19.084;2024-03-02T16:49:17;9.74;99.99
68109;SHT30;54893;49.864;19.084;2024-03-02T16:54:17;9.62;99.99
68109;SHT30;54893;49.864;19.084;2024-03-02T16:59:18;9.50;99.99
68109;SHT30;54893;49.864;19.084;2024-03-02T17:04:18;9.44;99.99
68109;SHT30;54893;49.864;19.084;2024-03-02T17:09:18;9.37;99.99
68109;SHT30;54893;49.864;19.084;2024-03-02T17:14:19;9.31;99.99
68109;SHT30;54893;49.864;19.084;2024-03-02T17:19:19;9.24;99.99
68109;SHT30;54893;49.864;19.084;2024-03-02T17:24:20;9.16;99.99
68109;SHT30;54893;49.864;19.084;2024-03-02T17:29:20;9.09;99.99
68109;SHT30;54893;49.864;19.084;2024-03-02T17:34:21;8.93;99.99
68109;SHT30;54893;49.864;19.084;2024-03-02T17:39:24;8.77;99.99
68109;SHT30;54893;49.864;19.084;2024-03-02T17:44:24;8.65;99.99
68109;SHT30;54893;49.864;19.084;2024-03-02T17:49:24;8.56;99.99
68109;SHT30;54893;49.864;19.084;2024-03-02T17:54:25;8.56;99.99
68109;SHT30;54893;49.864;19.084;2024-03-02T17:59:25;8.52;99.99
68109;SHT30;54893;49.864;19.084;2024-03-02T18:04:25;8.48;99.99
68109;SHT30;54893;49.864;19.084;2024-03-02T18:09:26;8.44;99.99
68109;SHT30;54893;49.864;19.084;2024-03-02T18:14:26;8.39;99.99
68109;SHT30;54893;49.864;19.084;2024-03-02T18:19:27;8.44;99.99
68109;SHT30;54893;49.864;19.084;2024-03-02T18:24:29;8.52;99.99
68109;SHT30;54893;49.864;19.084;2024-03-02T18:29:29;8.42;99.99
68109;SHT30;54893;49.864;19.084;2024-03-02T18:34:30;8.38;99.99
68109;SHT30;54893;49.864;19.084;2024-03-02T18:39:30;8.48;99.99
68109;SHT30;54893;49.864;19.084;2024-03-02T18:44:30;8.44;99.99
68109;SHT30;54893;49.864;19.084;2024-03-02T18:49:31;8.35;99.99
68109;SHT30;54893;49.864;19.084;2024-03-02T18:54:31;8.24;99.99
68109;SHT30;54893;49.864;19.084;2024-03-02T18:59:32;8.28;99.99
68109;SHT30;54893;49.864;19.084;2024-03-02T19:04:32;8.38;99.99
68109;SHT30;54893;49.864;19.084;2024-03-02T19:09:33;8.46;99.99
68109;SHT30;54893;49.864;19.084;2024-03-02T19:14:33;8.58;99.99
68109;SHT30;54893;49.864;19.084;2024-03-02T19:19:33;8.58;99.99
68109;SHT30;54893;49.864;19.084;2024-03-02T19:24:37;8.53;99.99
68109;SHT30;54893;49.864;19.084;2024-03-02T19:29:38;8.50;99.99
68109;SHT30;54893;49.864;19.084;2024-03-02T19:34:38;8.42;99.99
68109;SHT30;54893;49.864;19.084;2024-03-02T19:39:38;8.49;99.99
68109;SHT30;54893;49.864;19.084;2024-03-02T19:44:42;8.34;99.99
68109;SHT30;54893;49.864;19.084;2024-03-02T19:49:43;8.21;99.99
68109;SHT30;54893;49.864;19.084;2024-03-02T19:54:43;8.25;99.99
68109;SHT30;54893;49.864;19.084;2024-03-02T19:59:44;8.18;99.99
68109;SHT30;54893;49.864;19.084;2024-03-02T20:04:44;8.20;99.99
68109;SHT30;54893;49.864;19.084;2024-03-02T20:09:45;8.15;99.99
68109;SHT30;54893;49.864;19.084;2024-03-02T20:14:48;8.14;99.99
68109;SHT30;54893;49.864;19.084;2024-03-02T20:19:48;8.12;99.99
68109;SHT30;54893;49.864;19.084;2024-03-02T20:24:51;8.11;99.99
68109;SHT30;54893;49.864;19.084;2024-03-02T20:29:51;8.05;99.99
68109;SHT30;54893;49.864;19.084;2024-03-02T20:34:52;7.98;99.99
68109;SHT30;54893;49.864;19.084;2024-03-02T20:39:52;7.98;99.99
68109;SHT30;54893;49.864;19.084;2024-03-02T20:44:54;7.95;99.99
68109;SHT30;54893;49.864;19.084;2024-03-02T20:49:55;7.93;99.99
68109;SHT30;54893;49.864;19.084;2024-03-02T20:54:55;7.93;99.99
68109;SHT30;54893;49.864;19.084;2024-03-02T20:59:55;7.90;99.99
68109;SHT30;54893;49.864;19.084;2024-03-02T21:04:59;7.93;99.99
68109;SHT30;54893;49.864;19.084;2024-03-02T21:09:59;7.98;99.99
68109;SHT30;54893;49.864;19.084;2024-03-02T21:15:00;8.08;99.99
68109;SHT30;54893;49.864;19.084;2024-03-02T21:20:00;8.18;99.99
68109;SHT30;54893;49.864;19.084;2024-03-02T21:25:04;8.14;99.76
68109;SHT30;54893;49.864;19.084;2024-03-02T21:30:10;8.15;98.06
68109;SHT30;54893;49.864;19.084;2024-03-02T21:35:10;8.21;97.65
68109;SHT30;54893;49.864;19.084;2024-03-02T21:40:11;8.32;98.78
68109;SHT30;54893;49.864;19.084;2024-03-02T21:45:12;8.21;98.39
68109;SHT30;54893;49.864;19.084;2024-03-02T21:50:12;8.08;97.94
68109;SHT30;54893;49.864;19.084;2024-03-02T21:55:13;7.91;98.24
68109;SHT30;54893;49.864;19.084;2024-03-02T22:00:13;8.01;96.28
68109;SHT30;54893;49.864;19.084;2024-03-02T22:05:14;8.09;97.40
68109;SHT30;54893;49.864;19.084;2024-03-02T22:10:15;8.29;97.52
68109;SHT30;54893;49.864;19.084;2024-03-02T22:15:15;8.22;97.25
68109;SHT30;54893;49.864;19.084;2024-03-02T22:20:17;8.09;96.43
68109;SHT30;54893;49.864;19.084;2024-03-02T22:25:17;7.90;96.51
68109;SHT30;54893;49.864;19.084;2024-03-02T22:30:17;7.73;97.00
68109;SHT30;54893;49.864;19.084;2024-03-02T22:35:18;7.98;96.23
68109;SHT30;54893;49.864;19.084;2024-03-02T22:40:19;7.98;96.51
68109;SHT30;54893;49.864;19.084;2024-03-02T22:45:19;8.08;96.51
68109;SHT30;54893;49.864;19.084;2024-03-02T22:50:20;8.16;96.61
68109;SHT30;54893;49.864;19.084;2024-03-02T22:55:20;8.34;96.00
68109;SHT30;54893;49.864;19.084;2024-03-02T23:00:20;8.39;95.35
68109;SHT30;54893;49.864;19.084;2024-03-02T23:05:30;8.56;95.32
68109;SHT30;54893;49.864;19.084;2024-03-02T23:10:30;8.46;94.37
68109;SHT30;54893;49.864;19.084;2024-03-02T23:15:31;8.14;94.26
68109;SHT30;54893;49.864;19.084;2024-03-02T23:20:32;7.99;94.86
68109;SHT30;54893;49.864;19.084;2024-03-02T23:25:32;7.78;95.59
68109;SHT30;54893;49.864;19.084;2024-03-02T23:30:33;7.78;95.53
68109;SHT30;54893;49.864;19.084;2024-03-02T23:35:34;7.74;95.82
68109;SHT30;54893;49.864;19.084;2024-03-02T23:40:34;7.67;95.49
68109;SHT30;54893;49.864;19.084;2024-03-02T23:45:40;7.44;97.04
68109;SHT30;54893;49.864;19.084;2024-03-02T23:50:41;7.24;97.61
68109;SHT30;54893;49.864;19.084;2024-03-02T23:55:41;7.23;97.64
